Language selection

Features

My Weather Profile Weather Topics  | 

Strait of Georgia - south of Nanaimo: Past 24 Hour Conditions

 

Georgia Strait - 46303

03:00 PM PDT 11 April 2021Buoy position: 49.03N 123.43W
Disclaimer

This table is a summary of hourly weather conditions for the past 24 hours.
Please note that these observations might not always be representative of weather conditions over their associated marine area.

Date / Time
(PDT)
Wind(knots) Wave height(m) Wave period(s) Pressure(kPa) Air tempC) Water tempC)
11 April 2021
15:00 WNW 9 gust 11 0.2 2.9 103.0 7 10
14:00 WSW 3 gust 4 0.2 2.6 103.0 6 10
13:00 ENE 1 gust 3 0.2 2.7 103.1 6 9
12:00 NE 4 gust 6 0.3 2.7 103.1 6 9
11:00 NE 4 gust 5 0.3 2.6 103.1 5 8
10:00 NNE 5 gust 8 0.3 2.6 103.0 5 8
9:00 NNE 6 gust 9 0.4 2.8 103.0 6 7
8:00 W 13 gust 15 0.4 3.0 103.0 6 8
7:00 W 11 gust 14 0.4 3.2 102.9 6 7
6:00 W 11 gust 13 0.5 3.5 102.9 6 7
5:00 W 12 gust 15 0.6 3.5 102.9 6 7
4:00 W 12 gust 15 0.6 3.4 102.8 6 7
3:00 WNW 10 gust 14 0.6 3.2 102.8 6 7
2:00 W 16 gust 19 0.5 3.2 102.8 7 8
1:00 W 12 gust 15 0.5 3.2 102.8 7 8
0:00 W 12 gust 15 0.6 3.3 102.7 7 8
10 April 2021
23:00 WSW 12 gust 15 0.7 3.6 102.7 7 8
22:00 W 15 gust 18 0.7 3.5 102.7 8 8
21:00 WSW 14 gust 17 0.9 3.7 102.6 8 8
20:00 W 16 gust 19 1.0 3.8 102.6 8 8
19:00 W 18 gust 22 1.0 4.0 102.5 8 8
18:00 W 19 gust 24 N/A N/A 102.5 8 8
17:00 W 22 gust 25 1.1 4.1 102.5 8 8
16:00 W 21 gust 24 1.1 4.0 102.4 8 8
15:00 WNW 22 gust 26 0.8 3.7 102.4 7 8

Zoom-in to make a selection

Map of Pacific - Georgia Basin marine weather areas Sentry Shoal - 46131 Halibut Bank - 46146 La Perouse Bank - 46206 Georgia Strait - 46303 English Bay - 46304 Discovery Island Esquimalt Harbour Kelp Reefs Malahat Race Rocks Lightstation Saturna Island Sheringham Point University of Victoria Victoria Gonzales Victoria Int'l Airport Ballenas Islands Campbell River Airport Comox Airport Entrance Island Fanny Island Nanaimo Airport Sisters Islets Estevan Point Port Alberni Tofino Airport Grief Point Howe Sound - Pam Rocks Powell River Airport Sechelt Squamish Airport Point Atkinson Sand Heads Lightstation Tsawwassen Ferry Terminal Vancouver Int'l Airport Vancouver Harbour West Vancouver
Legend:
buoy Buoy
land station Land Station

Pacific - Georgia Basin Area

Another Region

What we are doing

Date modified: